createdAt,value
2022-10-30T00:00:48.168Z,30.38
2022-10-30T00:03:17.331Z,29.88
2022-10-30T00:05:46.542Z,31.85
2022-10-30T00:08:16.181Z,25.70
2022-10-30T00:10:44.939Z,26.83
2022-10-30T00:13:14.048Z,24.98
2022-10-30T00:15:48.153Z,27.95
2022-10-30T00:18:15.971Z,25.58
2022-10-30T00:20:43.862Z,30.60
2022-10-30T00:23:11.684Z,25.77
2022-10-30T00:25:39.577Z,34.95
2022-10-30T00:28:08.928Z,24.02
2022-10-30T00:30:37.409Z,27.52
2022-10-30T00:33:06.867Z,26.48
2022-10-30T00:35:34.802Z,28.95
2022-10-30T00:38:03.713Z,28.83
2022-10-30T00:40:31.580Z,26.92
2022-10-30T00:42:59.371Z,25.48
2022-10-30T00:45:29.190Z,26.65
2022-10-30T00:48:00.751Z,22.80
2022-10-30T00:50:34.214Z,27.88
2022-10-30T00:53:09.848Z,27.92
2022-10-30T00:55:41.684Z,24.50
2022-10-30T00:58:13.966Z,29.30
2022-10-30T01:00:47.339Z,30.70
2022-10-30T01:03:16.414Z,27.27
2022-10-30T01:05:50.180Z,30.75
2022-10-30T01:08:18.461Z,25.85
2022-10-30T01:10:49.093Z,29.02
2022-10-30T01:13:18.963Z,31.88
2022-10-30T01:16:00.751Z,24.15
2022-10-30T01:18:36.039Z,26.65
2022-10-30T01:21:20.944Z,26.48
2022-10-30T01:24:04.090Z,31.65
2022-10-30T01:26:44.881Z,26.65
2022-10-30T01:29:36.078Z,33.08
2022-10-30T01:32:22.697Z,27.27
2022-10-30T01:34:58.419Z,30.10
2022-10-30T01:37:34.266Z,31.58
2022-10-30T01:40:06.801Z,32.97
2022-10-30T01:42:50.912Z,37.03
2022-10-30T01:45:39.714Z,39.80
2022-10-30T01:48:23.589Z,28.50
2022-10-30T01:51:00.230Z,32.10
2022-10-30T01:53:44.160Z,29.00
2022-10-30T01:56:21.461Z,34.75
2022-10-30T01:58:57.595Z,30.30
2022-10-30T02:01:29.711Z,27.77
2022-10-30T02:03:58.189Z,31.23
2022-10-30T02:06:26.932Z,32.20
2022-10-30T02:08:58.217Z,28.60
2022-10-30T02:11:27.952Z,26.42
2022-10-30T02:13:58.539Z,27.35
2022-10-30T02:16:26.411Z,27.15
2022-10-30T02:18:54.265Z,32.35
2022-10-30T02:21:23.504Z,33.65
2022-10-30T02:23:51.535Z,31.42
2022-10-30T02:26:19.442Z,28.48
2022-10-30T02:28:47.365Z,30.05
2022-10-30T02:31:15.342Z,28.55
2022-10-30T02:33:46.632Z,26.70
2022-10-30T02:36:15.492Z,28.85
2022-10-30T02:38:45.381Z,34.90
2022-10-30T02:41:14.114Z,27.35
2022-10-30T02:43:42.991Z,25.95
2022-10-30T02:46:10.878Z,24.80
2022-10-30T02:48:38.764Z,31.23
2022-10-30T02:51:06.986Z,30.42
2022-10-30T02:53:35.257Z,32.58
2022-10-30T02:56:09.989Z,29.02
2022-10-30T02:58:38.079Z,31.23
2022-10-30T03:01:07.881Z,28.67
2022-10-30T03:03:35.733Z,29.88
2022-10-30T03:06:04.084Z,31.30
2022-10-30T03:08:32.211Z,25.90
2022-10-30T03:11:01.949Z,26.55
2022-10-30T03:13:33.298Z,26.70
2022-10-30T03:16:02.595Z,29.50
2022-10-30T03:18:33.264Z,28.30
2022-10-30T03:21:09.763Z,27.80
2022-10-30T03:23:38.219Z,32.28
2022-10-30T03:26:06.693Z,24.77
2022-10-30T03:28:41.793Z,27.05
2022-10-30T03:31:11.784Z,28.25
2022-10-30T03:33:41.650Z,25.48
2022-10-30T03:36:11.899Z,28.05
2022-10-30T03:38:40.046Z,28.92
2022-10-30T03:41:08.323Z,25.08
2022-10-30T03:43:36.391Z,26.85
2022-10-30T03:46:07.035Z,28.58
2022-10-30T03:48:35.429Z,31.73
2022-10-30T03:51:03.410Z,32.30
2022-10-30T03:53:31.354Z,25.40
2022-10-30T03:56:01.168Z,23.60
2022-10-30T03:58:36.998Z,30.15
2022-10-30T04:01:10.897Z,31.30
2022-10-30T04:03:41.869Z,28.30
2022-10-30T04:06:11.947Z,23.52
2022-10-30T04:08:39.940Z,27.70
2022-10-30T04:11:07.986Z,25.60
2022-10-30T04:13:36.603Z,20.10
2022-10-30T04:16:05.384Z,28.55
2022-10-30T04:18:36.607Z,27.67
2022-10-30T04:21:04.520Z,24.58
2022-10-30T04:23:34.859Z,23.88
2022-10-30T04:26:02.926Z,21.77
2022-10-30T04:28:31.045Z,24.00
2022-10-30T04:30:59.590Z,24.17
2022-10-30T04:33:28.703Z,24.25
2022-10-30T04:35:59.569Z,23.05
2022-10-30T04:38:28.084Z,25.85
2022-10-30T04:40:57.209Z,22.60
2022-10-30T04:43:37.563Z,25.65
2022-10-30T04:46:06.292Z,24.20
2022-10-30T04:48:36.172Z,27.48
2022-10-30T04:51:05.553Z,24.05
2022-10-30T04:53:33.548Z,28.45
2022-10-30T04:56:08.234Z,26.90
2022-10-30T04:58:37.863Z,30.02
2022-10-30T05:01:08.660Z,27.55
2022-10-30T05:03:38.665Z,25.60
2022-10-30T05:06:21.429Z,24.17
2022-10-30T05:08:49.347Z,22.17
2022-10-30T05:11:27.926Z,23.23
2022-10-30T05:13:57.013Z,20.17
2022-10-30T05:16:24.944Z,19.25
2022-10-30T05:18:53.953Z,25.63
2022-10-30T05:21:24.157Z,22.98
2022-10-30T05:23:52.054Z,25.20
2022-10-30T05:26:20.558Z,27.48
2022-10-30T05:28:48.845Z,24.23
2022-10-30T05:31:16.693Z,24.40
2022-10-30T05:34:07.308Z,31.35
2022-10-30T05:36:38.845Z,23.65
2022-10-30T05:39:07.252Z,24.40
2022-10-30T05:41:41.280Z,25.27
2022-10-30T05:44:10.193Z,29.15
2022-10-30T05:46:42.575Z,22.67
2022-10-30T05:49:36.808Z,19.40
2022-10-30T05:52:09.397Z,23.00
2022-10-30T05:54:37.720Z,24.25
2022-10-30T05:59:40.617Z,22.05
2022-10-30T06:02:08.987Z,27.42
2022-10-30T06:04:37.521Z,20.58
2022-10-30T06:07:14.999Z,27.48
2022-10-30T06:09:43.474Z,23.35
2022-10-30T06:12:27.298Z,25.95
2022-10-30T06:15:18.284Z,22.23
2022-10-30T06:17:46.139Z,25.40
2022-10-30T06:20:28.720Z,26.88
2022-10-30T06:23:23.787Z,25.77
2022-10-30T06:26:00.659Z,25.05
2022-10-30T06:28:35.122Z,21.23
2022-10-30T06:31:03.331Z,22.23
2022-10-30T06:33:32.528Z,23.02
2022-10-30T06:36:01.428Z,23.20
2022-10-30T06:38:30.918Z,20.65
2022-10-30T06:41:00.466Z,15.60
2022-10-30T06:43:46.195Z,22.73
2022-10-30T06:46:28.959Z,24.83
2022-10-30T06:49:00.577Z,23.60
2022-10-30T06:51:29.543Z,31.27
2022-10-30T06:54:00.837Z,25.90
2022-10-30T06:56:40.481Z,16.50
2022-10-30T06:59:08.733Z,18.58
2022-10-30T07:02:07.083Z,17.70
2022-10-30T07:04:47.065Z,22.35
2022-10-30T07:07:15.386Z,20.83
2022-10-30T07:09:46.513Z,22.98
2022-10-30T07:12:16.437Z,23.93
2022-10-30T07:15:12.119Z,20.98
2022-10-30T07:17:53.871Z,22.05
2022-10-30T07:20:24.962Z,17.58
2022-10-30T07:22:53.260Z,21.92
2022-10-30T07:25:22.909Z,24.08
2022-10-30T07:27:57.808Z,20.83
2022-10-30T07:30:43.118Z,21.52
2022-10-30T07:33:21.899Z,19.95
2022-10-30T07:35:56.053Z,16.92
2022-10-30T07:38:32.612Z,24.23
2022-10-30T07:41:14.676Z,24.42
2022-10-30T07:43:50.705Z,24.08
2022-10-30T07:46:56.556Z,22.33
2022-10-30T07:49:45.974Z,25.77
2022-10-30T07:52:17.574Z,17.67
2022-10-30T07:54:48.275Z,16.73
2022-10-30T08:00:29.813Z,22.42
2022-10-30T08:03:07.336Z,24.80
2022-10-30T08:05:45.485Z,18.38
2022-10-30T08:08:19.607Z,19.60
2022-10-30T08:10:54.374Z,20.08
2022-10-30T08:13:23.762Z,25.08
2022-10-30T08:15:51.802Z,24.60
2022-10-30T08:18:19.663Z,22.35
2022-10-30T08:20:50.895Z,21.48
2022-10-30T08:23:21.700Z,18.38
2022-10-30T08:25:49.758Z,22.25
2022-10-30T08:28:18.402Z,18.33
2022-10-30T08:30:47.781Z,16.70
2022-10-30T08:33:18.907Z,20.83
2022-10-30T08:36:07.293Z,20.10
2022-10-30T08:38:35.249Z,21.42
2022-10-30T08:41:24.856Z,21.15
2022-10-30T08:43:53.582Z,15.57
2022-10-30T08:46:23.300Z,19.20
2022-10-30T08:48:51.113Z,21.85
2022-10-30T08:51:19.677Z,16.85
2022-10-30T08:53:49.229Z,19.30
2022-10-30T08:56:17.473Z,19.52
2022-10-30T09:01:42.027Z,18.92
2022-10-30T09:04:22.379Z,16.15
2022-10-30T09:07:11.949Z,17.85
2022-10-30T09:10:07.990Z,15.80
2022-10-30T09:12:37.712Z,14.98
2022-10-30T09:15:06.585Z,14.90
2022-10-30T09:17:45.777Z,12.57
2022-10-30T09:20:13.762Z,21.52
2022-10-30T09:22:42.587Z,17.63
2022-10-30T09:25:11.142Z,15.50
2022-10-30T09:27:51.186Z,19.75
2022-10-30T09:30:20.069Z,18.80
2022-10-30T09:32:58.283Z,22.02
2022-10-30T09:35:41.666Z,15.55
2022-10-30T09:38:11.621Z,11.50
2022-10-30T09:40:52.905Z,12.65
2022-10-30T09:43:35.415Z,10.65
2022-10-30T09:46:16.845Z,17.23
2022-10-30T09:49:07.381Z,15.27
2022-10-30T09:52:00.548Z,14.32
2022-10-30T09:54:38.440Z,14.68
2022-10-30T09:57:17.023Z,16.63
2022-10-30T10:00:00.913Z,13.57
2022-10-30T10:02:37.413Z,14.55
2022-10-30T10:05:16.512Z,12.20
2022-10-30T10:11:06.625Z,17.85
2022-10-30T10:13:40.036Z,15.67
2022-10-30T10:16:15.514Z,19.30
2022-10-30T10:18:47.643Z,17.77
2022-10-30T10:21:24.972Z,12.45
2022-10-30T10:23:56.115Z,22.40
2022-10-30T10:26:30.704Z,15.60
2022-10-30T10:29:20.484Z,16.15
2022-10-30T10:31:56.552Z,36.03
2022-10-30T10:34:48.975Z,14.88
2022-10-30T10:37:31.687Z,16.52
2022-10-30T10:40:17.314Z,18.52
2022-10-30T10:42:53.769Z,14.95
2022-10-30T10:45:31.015Z,18.05
2022-10-30T10:48:18.095Z,17.55
2022-10-30T10:50:50.792Z,12.80
2022-10-30T10:53:25.775Z,13.98
2022-10-30T10:55:58.752Z,15.43
2022-10-30T10:58:31.499Z,13.63
2022-10-30T11:01:00.359Z,12.35
2022-10-30T11:03:38.160Z,10.65
2022-10-30T11:06:21.159Z,13.57
2022-10-30T11:08:50.635Z,15.82
2022-10-30T11:11:18.563Z,11.88
2022-10-30T11:13:46.464Z,12.00
2022-10-30T11:16:26.420Z,15.68
2022-10-30T11:18:59.106Z,20.23
2022-10-30T11:21:28.827Z,19.25
2022-10-30T11:23:58.037Z,10.02
2022-10-30T11:26:29.435Z,15.57
2022-10-30T11:29:00.816Z,13.25
2022-10-30T11:31:34.760Z,17.33
2022-10-30T11:34:26.178Z,18.30
2022-10-30T11:36:55.640Z,16.50
2022-10-30T11:39:27.063Z,12.70
2022-10-30T11:42:01.523Z,13.88
2022-10-30T11:44:33.928Z,17.73
2022-10-30T11:47:02.393Z,9.93
2022-10-30T11:49:40.566Z,14.70
2022-10-30T11:52:09.931Z,10.35
2022-10-30T11:54:44.722Z,21.08
2022-10-30T11:57:22.564Z,15.05
2022-10-30T11:59:53.057Z,22.30
2022-10-30T12:02:27.190Z,11.15
2022-10-30T12:04:55.620Z,17.52
2022-10-30T12:07:29.273Z,14.05
2022-10-30T12:09:59.404Z,14.57
2022-10-30T12:12:31.655Z,29.92
2022-10-30T12:15:11.728Z,12.57
2022-10-30T12:17:40.926Z,30.25
2022-10-30T12:20:14.723Z,14.77
2022-10-30T12:22:42.812Z,13.82
2022-10-30T12:25:23.743Z,11.52
2022-10-30T12:27:59.179Z,14.30
2022-10-30T12:30:29.945Z,13.63
2022-10-30T12:33:01.823Z,10.95
2022-10-30T12:35:40.570Z,12.07
2022-10-30T12:38:16.697Z,15.05
2022-10-30T12:40:56.835Z,14.27
2022-10-30T12:43:28.126Z,15.75
2022-10-30T12:46:03.447Z,15.85
2022-10-30T12:48:37.766Z,17.52
2022-10-30T12:51:18.364Z,13.60
2022-10-30T12:53:58.475Z,16.70
2022-10-30T12:56:31.832Z,16.17
2022-10-30T12:59:15.094Z,18.80
2022-10-30T13:01:48.884Z,10.90
2022-10-30T13:04:19.859Z,19.48
2022-10-30T13:06:53.136Z,18.02
2022-10-30T13:11:59.231Z,15.75
2022-10-30T13:14:39.639Z,13.82
2022-10-30T13:17:12.330Z,17.08
2022-10-30T13:19:42.049Z,20.00
2022-10-30T13:22:18.119Z,13.35
2022-10-30T13:24:59.215Z,18.35
2022-10-30T13:27:41.032Z,13.85
2022-10-30T13:30:15.089Z,15.35
2022-10-30T13:32:56.242Z,13.48
2022-10-30T13:35:35.562Z,16.88
2022-10-30T13:38:19.364Z,13.30
2022-10-30T13:40:52.603Z,15.02
2022-10-30T13:46:08.863Z,16.65
2022-10-30T13:48:51.478Z,17.05
2022-10-30T13:51:35.287Z,16.83
2022-10-30T13:54:11.846Z,11.70
2022-10-30T13:56:41.217Z,16.77
2022-10-30T13:59:21.798Z,11.82
2022-10-30T14:02:00.679Z,10.45
2022-10-30T14:04:38.500Z,15.73
2022-10-30T14:07:24.075Z,18.88
2022-10-30T14:10:01.220Z,9.57
2022-10-30T14:12:47.517Z,14.07
2022-10-30T14:15:34.622Z,17.33
2022-10-30T14:18:25.639Z,12.77
2022-10-30T14:20:54.404Z,9.35
2022-10-30T14:23:24.142Z,11.35
2022-10-30T14:26:21.406Z,14.07
2022-10-30T14:28:51.201Z,21.40
2022-10-30T14:31:33.734Z,12.60
2022-10-30T14:34:01.845Z,20.87
2022-10-30T14:36:50.807Z,11.80
2022-10-30T14:39:30.885Z,11.73
2022-10-30T14:42:13.721Z,14.05
2022-10-30T14:44:53.213Z,16.13
2022-10-30T14:47:44.176Z,11.88
2022-10-30T14:50:28.995Z,15.07
2022-10-30T14:53:11.510Z,12.68
2022-10-30T14:55:54.722Z,16.33
2022-10-30T14:58:26.176Z,10.85
2022-10-30T15:01:29.318Z,14.52
2022-10-30T15:04:10.868Z,16.83
2022-10-30T15:06:52.213Z,16.15
2022-10-30T15:09:32.819Z,12.82
2022-10-30T15:12:19.523Z,13.25
2022-10-30T15:14:54.641Z,14.18
2022-10-30T15:17:30.203Z,13.32
2022-10-30T15:20:03.545Z,20.77
2022-10-30T15:24:59.677Z,14.23
2022-10-30T15:27:28.421Z,13.73
2022-10-30T15:30:00.477Z,16.98
2022-10-30T15:32:28.426Z,16.00
2022-10-30T15:35:00.967Z,13.40
2022-10-30T15:37:28.831Z,16.70
2022-10-30T15:40:17.730Z,17.67
2022-10-30T15:42:46.179Z,12.23
2022-10-30T15:45:19.255Z,13.25
2022-10-30T15:47:50.068Z,15.80
2022-10-30T15:50:21.793Z,16.67
2022-10-30T15:52:50.828Z,16.33
2022-10-30T15:55:29.683Z,16.05
2022-10-30T15:58:03.893Z,16.00
2022-10-30T16:00:35.604Z,14.20
2022-10-30T16:03:06.064Z,19.67
2022-10-30T16:05:36.677Z,19.27
2022-10-30T16:08:10.942Z,17.58
2022-10-30T16:10:40.643Z,17.00
2022-10-30T16:13:14.157Z,21.15
2022-10-30T16:15:42.633Z,23.80
2022-10-30T16:18:18.762Z,17.33
2022-10-30T16:20:50.927Z,18.75
2022-10-30T16:23:21.141Z,20.35
2022-10-30T16:25:49.887Z,16.65
2022-10-30T16:28:26.114Z,17.65
2022-10-30T16:30:54.788Z,22.90
2022-10-30T16:33:27.186Z,23.30
2022-10-30T16:35:57.113Z,17.43
2022-10-30T16:38:29.190Z,16.52
2022-10-30T16:40:57.472Z,18.90
2022-10-30T16:43:28.208Z,20.92
2022-10-30T16:45:57.664Z,18.05
2022-10-30T16:48:30.109Z,19.20
2022-10-30T16:51:03.095Z,13.40
2022-10-30T16:53:31.759Z,16.02
2022-10-30T16:56:00.842Z,17.52
2022-10-30T16:58:31.871Z,13.30
2022-10-30T17:01:05.815Z,21.88
2022-10-30T17:03:38.290Z,22.08
2022-10-30T17:06:25.634Z,12.60
2022-10-30T17:08:55.676Z,15.93
2022-10-30T17:11:35.988Z,20.67
2022-10-30T17:14:06.904Z,21.98
2022-10-30T17:16:38.383Z,17.42
2022-10-30T17:19:44.872Z,18.33
2022-10-30T17:22:18.712Z,19.40
2022-10-30T17:24:47.682Z,19.30
2022-10-30T17:27:31.631Z,22.30
2022-10-30T17:29:59.818Z,22.08
2022-10-30T17:32:28.873Z,25.10
2022-10-30T17:35:01.910Z,18.95
2022-10-30T17:37:31.090Z,19.05
2022-10-30T17:39:58.903Z,19.67
2022-10-30T17:42:26.873Z,24.30
2022-10-30T17:44:54.745Z,23.17
2022-10-30T17:47:23.689Z,26.52
2022-10-30T17:49:51.527Z,27.55
2022-10-30T17:52:21.767Z,21.00
2022-10-30T17:54:51.123Z,26.58
2022-10-30T17:57:19.263Z,28.13
2022-10-30T17:59:47.446Z,26.52
2022-10-30T18:02:17.706Z,25.67
2022-10-30T18:04:47.759Z,36.17
2022-10-30T18:07:17.646Z,33.45
2022-10-30T18:09:46.513Z,28.38
2022-10-30T18:12:19.338Z,30.00
2022-10-30T18:14:47.684Z,31.08
2022-10-30T18:17:16.194Z,32.25
2022-10-30T18:19:44.535Z,27.92
2022-10-30T18:22:12.955Z,39.90
2022-10-30T18:24:40.903Z,32.28
2022-10-30T18:27:08.697Z,34.95
2022-10-30T18:29:37.867Z,28.40
2022-10-30T18:32:09.544Z,34.60
2022-10-30T18:34:37.755Z,33.75
2022-10-30T18:37:05.583Z,32.53
2022-10-30T18:39:33.480Z,31.73
2022-10-30T18:42:01.387Z,34.25
2022-10-30T18:44:29.281Z,41.33
2022-10-30T18:47:02.800Z,33.28
2022-10-30T18:49:33.301Z,34.53
2022-10-30T18:52:01.277Z,31.65
2022-10-30T18:54:29.252Z,35.95
2022-10-30T18:56:57.083Z,38.78
2022-10-30T18:59:24.875Z,35.47
2022-10-30T19:01:53.616Z,32.33
2022-10-30T19:04:22.876Z,39.30
2022-10-30T19:06:50.906Z,33.05
2022-10-30T19:09:18.713Z,32.22
2022-10-30T19:11:46.627Z,39.42
2022-10-30T19:14:15.953Z,29.13
2022-10-30T19:16:43.810Z,34.15
2022-10-30T19:19:11.703Z,42.28
2022-10-30T19:21:40.996Z,38.00
2022-10-30T19:24:15.167Z,33.60
2022-10-30T19:26:43.078Z,29.27
2022-10-30T19:29:10.912Z,40.17
2022-10-30T19:31:38.702Z,37.97
2022-10-30T19:34:06.613Z,43.92
2022-10-30T19:36:36.948Z,40.30
2022-10-30T19:39:12.711Z,35.53
2022-10-30T19:41:41.214Z,37.80
2022-10-30T19:44:09.460Z,31.63
2022-10-30T19:46:37.553Z,33.85
2022-10-30T19:49:16.082Z,33.13
2022-10-30T19:51:43.908Z,38.80
2022-10-30T19:54:13.134Z,31.45
2022-10-30T19:56:42.178Z,43.58
2022-10-30T19:59:10.957Z,35.88
2022-10-30T20:01:38.968Z,31.65
2022-10-30T20:04:06.863Z,34.50
2022-10-30T20:06:34.656Z,35.33
2022-10-30T20:09:02.910Z,38.28
2022-10-30T20:11:32.287Z,38.45
2022-10-30T20:14:00.114Z,35.40
2022-10-30T20:16:28.000Z,37.35
2022-10-30T20:18:55.837Z,35.20
2022-10-30T20:21:23.649Z,32.15
2022-10-30T20:23:51.485Z,34.70
2022-10-30T20:26:25.003Z,41.17
2022-10-30T20:28:55.268Z,36.25
2022-10-30T20:31:23.330Z,33.67
2022-10-30T20:33:51.146Z,40.25
2022-10-30T20:36:18.968Z,34.25
2022-10-30T20:38:46.908Z,34.58
2022-10-30T20:41:22.970Z,37.10
2022-10-30T20:43:51.493Z,39.45
2022-10-30T20:46:21.612Z,36.58
2022-10-30T20:48:49.451Z,35.80
2022-10-30T20:51:17.713Z,34.17
2022-10-30T20:53:45.708Z,37.17
2022-10-30T20:56:13.600Z,41.58
2022-10-30T20:58:43.723Z,44.40
2022-10-30T21:01:13.604Z,42.83
2022-10-30T21:03:42.890Z,34.83
2022-10-30T21:06:11.054Z,45.08
2022-10-30T21:08:38.949Z,37.00
2022-10-30T21:11:07.706Z,29.27
2022-10-30T21:13:36.104Z,40.53
2022-10-30T21:16:05.883Z,36.75
2022-10-30T21:18:33.727Z,38.78
2022-10-30T21:21:06.235Z,41.67
2022-10-30T21:23:34.114Z,39.80
2022-10-30T21:26:02.554Z,36.88
2022-10-30T21:28:30.390Z,37.13
2022-10-30T21:31:03.070Z,40.58
2022-10-30T21:33:31.540Z,40.75
2022-10-30T21:36:10.909Z,41.50
2022-10-30T21:38:42.840Z,43.60
2022-10-30T21:41:12.255Z,38.65
2022-10-30T21:43:40.302Z,38.55
2022-10-30T21:46:08.319Z,54.13
2022-10-30T21:48:36.305Z,46.75
2022-10-30T21:51:12.086Z,44.80
2022-10-30T21:53:40.814Z,50.03
2022-10-30T21:56:10.837Z,40.92
2022-10-30T21:58:38.796Z,41.13
2022-10-30T22:01:07.586Z,45.45
2022-10-30T22:03:35.633Z,46.50
2022-10-30T22:06:11.909Z,35.65
2022-10-30T22:08:39.979Z,41.40
2022-10-30T22:11:10.339Z,39.03
2022-10-30T22:13:39.087Z,39.28
2022-10-30T22:16:08.806Z,41.13
2022-10-30T22:18:36.717Z,41.80
2022-10-30T22:21:07.144Z,39.33
2022-10-30T22:23:38.358Z,41.78
2022-10-30T22:26:07.996Z,41.20
2022-10-30T22:28:36.376Z,39.97
2022-10-30T22:31:05.247Z,46.08
2022-10-30T22:33:33.978Z,44.53
2022-10-30T22:36:06.597Z,39.45
2022-10-30T22:38:36.011Z,35.40
2022-10-30T22:41:11.679Z,44.45
2022-10-30T22:43:39.947Z,39.45
2022-10-30T22:46:08.277Z,39.42
2022-10-30T22:48:36.353Z,42.83
2022-10-30T22:51:08.492Z,41.45
2022-10-30T22:53:41.123Z,40.50
2022-10-30T22:56:13.969Z,39.08
2022-10-30T22:58:42.127Z,41.53
2022-10-30T23:01:11.940Z,37.28
2022-10-30T23:03:39.860Z,40.50
2022-10-30T23:06:08.223Z,36.28
2022-10-30T23:08:36.580Z,44.03
2022-10-30T23:11:06.908Z,35.45
2022-10-30T23:13:35.890Z,41.78
2022-10-30T23:16:05.606Z,41.80
2022-10-30T23:18:34.065Z,41.88
2022-10-30T23:21:03.713Z,45.15
2022-10-30T23:23:31.721Z,41.45
2022-10-30T23:26:03.479Z,37.75
2022-10-30T23:28:33.041Z,37.92
2022-10-30T23:31:00.865Z,40.30
2022-10-30T23:33:28.689Z,39.72
2022-10-30T23:35:59.730Z,36.00
2022-10-30T23:38:27.828Z,32.15
2022-10-30T23:40:55.978Z,35.42
2022-10-30T23:43:23.919Z,40.35
2022-10-30T23:45:53.636Z,34.00
2022-10-30T23:48:21.455Z,35.17
2022-10-30T23:50:49.309Z,33.53
2022-10-30T23:53:17.192Z,35.33
2022-10-30T23:55:50.836Z,36.55
2022-10-30T23:58:18.797Z,35.30
